New York, NY (10001)

7:06 PM EST on February 08, 2016 (GMT -0500)
Chelsea, West 28th St. | | Change Station
CLOSE
Current Station
Personal Weather Station
Location: New York, NY
Elevation: 110 ft
Nearby Weather Stations

Elev 110 ft 40.75 °N, 73.99 °W | Updated 13 seconds ago

Overcast
Overcast
32.7 °F
Feels Like 33 °F
N
0.0
Wind Variable Wind from WSW
Gusts 0.0 mph

Today
High -- | Low -- °F
--% Chance of Precip.
Yesterday
High -- | Low -- °F
Precip. -- in
Pressure 29.78 in
Visibility 8.0 miles
Clouds Overcast 2400 ft
Windchill 33 °F
Dew Point 22 °F
Humidity 64%
Rainfall 0.02 in
Snow Depth Not available.
6:59 AM 5:21 PM
New Moon, 0% visible
METAR KNYC 082351Z AUTO 04008G14KT 010V070 8SM OVC024 M01/M06 A2980 RMK AO2 SLP083 T10061056 10011 21006 51018 $
Pressure 29.78 in
Visibility 8.0 miles
Clouds Overcast 2400 ft
Windchill 33 °F
Dew Point 22 °F
Humidity 64%
Rainfall 0.02 in
Snow Depth Not available.
6:59 AM 5:21 PM
New Moon, 0% visible
METAR KNYC 082351Z AUTO 04008G14KT 010V070 8SM OVC024 M01/M06 A2980 RMK AO2 SLP083 T10061056 10011 21006 51018 $
Winter Storm will continue impacting eastern New England through Monday night with a combination of heavy snow and strong winds, resulting in dangerous travel conditions. In parts of southeast Massachusetts, blizzard conditions are possible along with tree damage, some power outages and coastal flooding. As of late Monday morning, winds had gusted up to 57 mph on Nantucket Island and coastal flooding was reported in several locations along the Massachusetts coast.

10-Day Weather Forecast

Almanac

Astronomy

Feb. 08, 2016 Rise Set
Actual Time
Civil Twilight
Nautical Twilight
Astronomical Twilight
Moon
Length of Visible Light
Length of Day
Tomorrow will be .
, % of the Moon is Illuminated

Today's Extremes

State Highs State Lows

Community

WunderPhotos

Upload Photos

1,891,527 photos uploaded!

WunderBlog® & News

Nearby

Air Quality

  Air Quality AQ Index Pollutant
Not available.

Snow Depth

Station Depth Elevation

Earthquake Activity

City Distance Mag. Time & Date
Minimum magnitude displayed is 2.5.

Coastal Water Temperatures

Place Temperature

Stations

Nearby Weather Stations

Station Location Temp. Windchill Dew Point Humidity Wind Precip. Elev Updated Type
                   

Watches & Warnings

There are currently no watches in effect.